Time;durP1;ratioP1;P1;durP2;ratioP2;P2;SDS_P1;SDS_P2;PMS_P1;PMS_P2;Temp;Humidity;BMP_temperature;BMP_pressure;BME280_temperature;BME280_humidity;BME280_pressure;Samples;Min_cycle;Max_cycle;Signal;HPM_P1;HPM_P2
2023/10/16 00:01:10;;;;;;;4.50;1.40;;;7.90;99.90;;;;;;5028311;28;39104;-82
2023/10/16 00:03:38;;;;;;;4.23;1.10;;;7.90;99.90;;;;;;5023401;28;37230;-81
2023/10/16 00:06:11;;;;;;;3.40;0.97;;;7.90;99.90;;;;;;5024402;28;39335;-82
2023/10/16 00:09:10;;;;;;;;;;;7.90;99.90;;;;;;5017524;28;37331;-82
2023/10/16 00:11:37;;;;;;;6.27;1.20;;;7.90;99.90;;;;;;5020715;28;49343;-82
2023/10/16 00:14:14;;;;;;;2.97;0.97;;;7.80;99.90;;;;;;5027674;28;37641;-83
2023/10/16 00:16:44;;;;;;;6.97;1.33;;;7.80;99.90;;;;;;5019686;28;39222;-82
2023/10/16 00:19:11;;;;;;;3.33;1.10;;;7.70;99.90;;;;;;5018656;28;38320;-83
2023/10/16 00:21:43;;;;;;;2.70;1.30;;;7.70;99.90;;;;;;5024221;28;38214;-83
2023/10/16 00:24:11;;;;;;;2.33;1.05;;;7.70;99.90;;;;;;5023345;28;38448;-83
2023/10/16 00:26:42;;;;;;;3.53;1.03;;;7.70;99.90;;;;;;5024055;28;37650;-83
2023/10/16 00:29:24;;;;;;;3.23;1.10;;;7.70;99.90;;;;;;5029101;28;37488;-83
2023/10/16 00:31:51;;;;;;;1.65;0.60;;;7.60;99.90;;;;;;5034947;28;36934;-82
2023/10/16 00:34:21;;;;;;;2.83;1.10;;;7.60;99.90;;;;;;5021704;28;35809;-80
2023/10/16 00:36:47;;;;;;;2.20;0.87;;;7.50;99.90;;;;;;5023751;28;40495;-82
2023/10/16 00:39:14;;;;;;;2.43;0.93;;;7.50;99.90;;;;;;5028930;28;37657;-80
2023/10/16 00:41:42;;;;;;;2.60;1.27;;;7.40;99.90;;;;;;5020980;28;38523;-82
2023/10/16 00:44:08;;;;;;;2.73;1.00;;;7.40;99.90;;;;;;5032410;28;36177;-81
2023/10/16 00:46:38;;;;;;;2.80;1.13;;;7.40;99.90;;;;;;5019546;28;38837;-82
2023/10/16 00:49:05;;;;;;;2.27;0.97;;;7.40;99.90;;;;;;5018027;28;37479;-82
2023/10/16 00:51:39;;;;;;;1.57;0.77;;;7.40;99.90;;;;;;5026642;28;37183;-81
2023/10/16 00:54:26;;;;;;;4.97;1.00;;;7.40;99.90;;;;;;5022112;28;36100;-82
2023/10/16 00:56:53;;;;;;;3.97;1.30;;;7.30;99.90;;;;;;5016463;28;37222;-82
2023/10/16 00:59:23;;;;;;;3.37;0.90;;;7.30;99.90;;;;;;5025657;28;39132;-82
2023/10/16 01:04:20;;;;;;;4.67;1.30;;;7.20;99.90;;;;;;5034928;28;20042;-79
2023/10/16 01:06:46;;;;;;;2.20;1.00;;;7.20;99.90;;;;;;5056193;28;38580;-80
2023/10/16 01:09:25;;;;;;;4.70;1.43;;;7.30;99.90;;;;;;5070666;28;37602;-79
2023/10/16 01:11:52;;;;;;;2.37;0.77;;;7.20;99.90;;;;;;5051378;28;38628;-80
2023/10/16 01:14:19;;;;;;;2.37;1.00;;;7.20;99.90;;;;;;5053785;28;37706;-79
2023/10/16 01:16:46;;;;;;;3.53;0.90;;;7.20;99.90;;;;;;5050437;28;38491;-80
2023/10/16 01:19:19;;;;;;;3.27;0.97;;;7.20;99.90;;;;;;5071239;28;37499;-80
2023/10/16 01:21:48;;;;;;;2.33;0.90;;;7.20;99.90;;;;;;5062407;28;37938;-79
2023/10/16 01:24:16;;;;;;;1.63;0.93;;;7.20;99.90;;;;;;5046220;28;36250;-80
2023/10/16 01:26:43;;;;;;;3.23;1.20;;;7.20;99.90;;;;;;5057150;28;38591;-80
2023/10/16 01:29:10;;;;;;;1.80;0.90;;;7.20;99.90;;;;;;5051400;28;37095;-79
2023/10/16 01:31:37;;;;;;;3.17;0.83;;;7.20;99.90;;;;;;5068506;28;37995;-79
2023/10/16 01:34:04;;;;;;;2.43;0.80;;;7.20;99.90;;;;;;5047101;28;37331;-79
2023/10/16 01:36:30;;;;;;;4.20;1.17;;;7.20;99.90;;;;;;5042399;28;38952;-79
2023/10/16 01:39:06;;;;;;;2.17;0.83;;;7.30;99.90;;;;;;5049443;28;39074;-79
2023/10/16 01:41:32;;;;;;;3.40;1.07;;;7.30;99.90;;;;;;5053145;28;47173;-79
2023/10/16 01:44:01;;;;;;;7.50;1.30;;;7.40;99.90;;;;;;5059124;28;35933;-79
2023/10/16 01:46:29;;;;;;;6.80;1.27;;;7.50;99.90;;;;;;5043216;28;46793;-79
2023/10/16 01:49:00;;;;;;;3.27;0.93;;;7.50;99.90;;;;;;5051000;28;37700;-79
2023/10/16 01:51:30;;;;;;;3.53;1.30;;;7.50;99.90;;;;;;5046919;28;35436;-79
2023/10/16 01:53:56;;;;;;;2.93;0.80;;;7.50;99.90;;;;;;5053724;28;37803;-79
2023/10/16 01:56:22;;;;;;;2.43;0.87;;;7.50;99.90;;;;;;5057901;28;37239;-79
2023/10/16 01:58:52;;;;;;;1.70;0.90;;;7.60;99.90;;;;;;5056114;28;37429;-78
2023/10/16 02:01:20;;;;;;;6.20;1.17;;;7.50;99.90;;;;;;5053501;28;37984;-79
2023/10/16 02:03:49;;;;;;;5.47;1.83;;;7.50;99.90;;;;;;5049641;28;36279;-79
2023/10/16 02:06:16;;;;;;;2.47;1.07;;;7.50;99.90;;;;;;5050843;28;37791;-79
2023/10/16 02:08:44;;;;;;;3.03;0.87;;;7.50;99.90;;;;;;5070949;28;38085;-79
2023/10/16 02:11:11;;;;;;;2.00;0.73;;;7.40;99.90;;;;;;5048286;28;37050;-79
2023/10/16 02:13:40;;;;;;;3.00;0.80;;;7.40;99.90;;;;;;5053676;28;38094;-78
2023/10/16 02:16:10;;;;;;;0.70;0.70;;;7.40;99.90;;;;;;5055307;28;39054;-78
2023/10/16 02:18:37;;;;;;;4.70;1.00;;;7.40;99.90;;;;;;5048285;28;37560;-79
2023/10/16 02:21:04;;;;;;;5.10;1.33;;;7.30;99.90;;;;;;5055184;28;39283;-79
2023/10/16 02:23:31;;;;;;;4.73;1.00;;;7.40;99.90;;;;;;5055806;28;36893;-79
2023/10/16 02:26:01;;;;;;;4.73;1.20;;;7.30;99.90;;;;;;5058579;28;38017;-79
2023/10/16 02:28:31;;;;;;;4.23;1.10;;;7.40;99.90;;;;;;5052260;28;46714;-79
2023/10/16 02:31:13;;;;;;;1.90;0.80;;;7.30;99.90;;;;;;5056133;28;39395;-79
2023/10/16 02:33:50;;;;;;;1.53;0.80;;;7.30;99.90;;;;;;5050985;28;48368;-79
2023/10/16 02:36:23;;;;;;;5.47;1.33;;;7.30;99.90;;;;;;5052556;28;39704;-79
2023/10/16 02:38:55;;;;;;;2.47;1.10;;;7.30;99.90;;;;;;5054878;28;37692;-79
2023/10/16 02:41:22;;;;;;;3.22;0.95;;;7.20;99.90;;;;;;5048695;28;36615;-79
2023/10/16 02:43:49;;;;;;;3.33;1.27;;;7.20;99.90;;;;;;5045327;28;33731;-79
2023/10/16 02:46:21;;;;;;;4.03;1.00;;;7.10;99.90;;;;;;5058336;28;39625;-79
2023/10/16 02:48:47;;;;;;;5.53;1.35;;;7.10;99.90;;;;;;5053187;28;37999;-79
2023/10/16 02:51:16;;;;;;;4.23;1.10;;;7.10;99.90;;;;;;5049963;28;38647;-79
2023/10/16 02:53:43;;;;;;;2.07;1.10;;;7.10;99.90;;;;;;5052156;28;35941;-79
2023/10/16 02:58:42;;;;;;;3.80;1.47;;;7.10;99.90;;;;;;5055701;28;38460;-79
2023/10/16 03:01:18;;;;;;;2.90;0.90;;;7.10;99.90;;;;;;5054984;28;38163;-79
2023/10/16 03:03:46;;;;;;;1.60;0.80;;;7.00;99.90;;;;;;5045034;28;37735;-79
2023/10/16 03:06:13;;;;;;;2.63;1.00;;;7.00;99.90;;;;;;5047641;28;38967;-79
2023/10/16 03:08:39;;;;;;;2.43;1.10;;;7.00;99.90;;;;;;5052854;28;36883;-79
2023/10/16 03:11:13;;;;;;;2.53;0.93;;;6.90;99.90;;;;;;5048372;28;38161;-77
2023/10/16 03:13:40;;;;;;;2.50;0.70;;;6.90;99.90;;;;;;5049177;28;36993;-78
2023/10/16 03:19:09;;;;;;;1.23;0.90;;;6.90;99.90;;;;;;5030383;28;39605;-78
2023/10/16 03:21:38;;;;;;;2.80;0.93;;;6.90;99.90;;;;;;5052704;28;37086;-78
2023/10/16 03:24:07;;;;;;;1.87;1.17;;;6.80;99.90;;;;;;5044853;28;37640;-77
2023/10/16 03:26:34;;;;;;;4.87;1.40;;;6.90;99.90;;;;;;5048920;28;38396;-79
2023/10/16 03:29:05;;;;;;;2.47;1.03;;;6.80;99.90;;;;;;5049524;28;39804;-78
2023/10/16 03:31:36;;;;;;;3.30;1.30;;;6.80;99.90;;;;;;5054977;28;46923;-78
2023/10/16 03:34:02;;;;;;;2.60;1.00;;;6.80;99.90;;;;;;5075263;28;37515;-77
2023/10/16 03:36:28;;;;;;;2.60;1.10;;;6.80;99.90;;;;;;5052513;28;37554;-78
2023/10/16 03:38:57;;;;;;;2.33;1.03;;;6.80;99.90;;;;;;5047601;28;37356;-78
2023/10/16 03:43:57;;;;;;;1.10;1.00;;;6.80;99.90;;;;;;5052325;28;37848;-78
2023/10/16 03:46:29;;;;;;;2.27;0.70;;;6.80;99.90;;;;;;5043324;28;37703;-78
2023/10/16 03:48:56;;;;;;;2.88;1.30;;;6.80;99.90;;;;;;5054182;28;37558;-78
2023/10/16 03:51:23;;;;;;;3.03;1.63;;;6.80;99.90;;;;;;5055102;28;38611;-78
2023/10/16 03:53:52;;;;;;;2.83;1.53;;;6.80;99.90;;;;;;5051675;28;36079;-78
2023/10/16 03:56:20;;;;;;;1.17;0.90;;;6.90;99.90;;;;;;5050805;28;38653;-78
2023/10/16 03:58:46;;;;;;;5.93;1.20;;;6.90;99.90;;;;;;5053760;28;37678;-78
2023/10/16 04:01:13;;;;;;;2.17;1.00;;;7.00;99.90;;;;;;5051462;28;39272;-78
2023/10/16 04:03:58;;;;;;;3.13;1.10;;;7.00;99.90;;;;;;5050840;28;35819;-79
2023/10/16 04:06:26;;;;;;;2.57;0.80;;;7.10;99.90;;;;;;5058327;28;38033;-79
2023/10/16 04:08:54;;;;;;;4.23;1.50;;;7.10;99.90;;;;;;5050496;28;39034;-79
2023/10/16 04:11:23;;;;;;;3.03;1.33;;;7.10;99.90;;;;;;5057696;28;37082;-79
2023/10/16 04:13:49;;;;;;;3.77;1.23;;;7.10;99.90;;;;;;5060068;28;36826;-79
2023/10/16 04:21:50;;;;;;;2.10;1.10;;;7.10;99.90;;;;;;5061007;28;38750;-78
2023/10/16 04:34:56;;;;;;;1.00;0.87;;;7.10;99.90;;;;;;5053553;28;37789;-78
2023/10/16 04:37:40;;;;;;;3.73;1.20;;;7.10;99.90;;;;;;5051631;28;37944;-78
2023/10/16 04:48:07;;;;;;;3.23;1.40;;;7.10;99.90;;;;;;5051868;28;39789;-78
2023/10/16 05:09:44;;;;;;;3.67;1.53;;;7.40;99.90;;;;;;5052894;28;40156;-78
2023/10/16 06:14:38;;;;;;;3.67;2.07;;;8.10;99.90;;;;;;5044954;28;49511;-79
2023/10/16 06:17:15;;;;;;;4.87;2.10;;;8.20;99.90;;;;;;5052795;28;38719;-79
2023/10/16 06:19:42;;;;;;;5.80;2.30;;;8.20;99.90;;;;;;5066901;28;36900;-80
2023/10/16 06:22:09;;;;;;;4.63;2.13;;;8.20;99.90;;;;;;5055286;28;36076;-81
2023/10/16 06:24:36;;;;;;;3.73;2.40;;;8.30;99.90;;;;;;5051877;28;39152;-80
2023/10/16 06:27:10;;;;;;;5.53;3.07;;;8.30;99.90;;;;;;5052274;28;39344;-78
2023/10/16 06:29:49;;;;;;;4.90;2.70;;;8.40;99.90;;;;;;5053755;28;37205;-81
2023/10/16 06:32:19;;;;;;;3.80;2.57;;;8.40;99.90;;;;;;5066465;28;36075;-79
2023/10/16 06:35:03;;;;;;;2.50;2.20;;;8.50;99.90;;;;;;5058903;28;37438;-79
2023/10/16 06:37:32;;;;;;;2.20;1.93;;;8.50;99.90;;;;;;5035877;28;47291;-79
2023/10/16 06:40:01;;;;;;;3.50;2.50;;;8.50;99.90;;;;;;5048082;28;37109;-79
2023/10/16 06:42:30;;;;;;;3.43;2.10;;;8.50;99.90;;;;;;5041055;28;36410;-79
2023/10/16 06:45:07;;;;;;;3.80;2.10;;;8.60;99.90;;;;;;5055672;28;39123;-80
2023/10/16 06:47:36;;;;;;;2.90;1.90;;;8.60;99.90;;;;;;5048753;28;47112;-81
2023/10/16 06:52:55;;;;;;;3.73;2.17;;;8.70;99.90;;;;;;5067151;28;50105;-81
2023/10/16 06:55:22;;;;;;;7.97;2.47;;;8.70;99.90;;;;;;5079303;28;40176;-81
2023/10/16 06:57:49;;;;;;;5.00;2.40;;;8.70;99.90;;;;;;5075799;28;38452;-81
2023/10/16 07:00:23;;;;;;;4.13;3.17;;;8.70;99.90;;;;;;5080119;28;39482;-81
2023/10/16 07:02:56;;;;;;;5.93;2.87;;;8.80;99.90;;;;;;5077329;28;50092;-81
2023/10/16 07:23:34;;;;;;;3.63;2.30;;;9.10;99.90;;;;;;5267922;22;20045;-81
2023/10/16 07:26:02;;;;;;;;;;;9.10;99.90;;;;;;5303385;22;39305;-80
2023/10/16 07:29:05;;;;;;;3.97;2.50;;;9.20;99.90;;;;;;5080073;28;49893;-82
2023/10/16 07:31:32;;;;;;;3.83;2.70;;;9.20;99.90;;;;;;5692945;22;50085;-80
2023/10/16 07:34:04;;;;;;;3.40;2.60;;;9.30;99.90;;;;;;5256833;22;37845;-80
2023/10/16 07:54:41;;;;;;;2.53;1.97;;;9.70;99.90;;;;;;5074716;28;20044;-81
2023/10/16 07:57:11;;;;;;;4.35;2.35;;;9.70;99.90;;;;;;5655424;22;39513;-78
2023/10/16 07:59:37;;;;;;;4.93;2.60;;;9.80;99.90;;;;;;5047156;28;36473;-77
2023/10/16 08:02:08;;;;;;;5.80;2.20;;;9.90;99.90;;;;;;5017621;28;37906;-77
2023/10/16 08:04:37;;;;;;;3.80;2.43;;;10.00;99.90;;;;;;5018977;28;35946;-78
2023/10/16 08:07:08;;;;;;;6.83;2.97;;;10.00;99.90;;;;;;5028459;28;37979;-78
2023/10/16 08:19:56;;;;;;;2.92;2.60;;;10.30;99.90;;;;;;5439634;22;20093;-80
2023/10/16 08:22:26;;;;;;;5.75;3.00;;;10.40;99.90;;;;;;5068876;28;39576;-79
2023/10/16 08:25:04;;;;;;;4.53;2.75;;;10.50;99.90;;;;;;5063830;28;37791;-80
2023/10/16 09:14:20;;;;;;;2.90;0.88;;;11.60;99.90;;;;;;5648390;22;20033;-80
2023/10/16 09:24:35;;;;;;;2.67;0.52;;;11.70;99.90;;;;;;5911819;22;20029;-79
2023/10/16 10:04:17;;;;;;;1.90;0.50;;;12.90;99.90;;;;;;5211179;22;20057;-81
2023/10/16 10:06:49;;;;;;;2.95;0.70;;;12.90;99.90;;;;;;5076474;28;37836;-81
2023/10/16 10:11:56;;;;;;;2.88;1.08;;;13.10;99.90;;;;;;5067563;28;39759;-81
2023/10/16 10:14:39;;;;;;;1.67;0.60;;;13.00;99.90;;;;;;5055783;28;37578;-81
2023/10/16 10:23:04;;;;;;;2.83;0.50;;;13.30;99.90;;;;;;5111048;22;20054;-82
2023/10/16 10:25:38;;;;;;;1.35;0.40;;;13.40;99.90;;;;;;5040235;28;47472;-81
2023/10/16 10:28:40;;;;;;;1.33;0.30;;;13.40;99.90;;;;;;5030827;28;37942;-82
2023/10/16 10:31:10;;;;;;;2.73;0.47;;;13.60;99.90;;;;;;5024060;28;38469;-81
2023/10/16 10:33:53;;;;;;;2.47;0.77;;;13.90;99.90;;;;;;5029695;28;38482;-81
2023/10/16 10:36:43;;;;;;;0.50;0.20;;;13.90;99.90;;;;;;5027661;28;37508;-83
2023/10/16 10:39:22;;;;;;;1.42;0.50;;;13.90;99.90;;;;;;5033684;28;37620;-83
2023/10/16 10:41:58;;;;;;;2.45;0.77;;;14.00;99.90;;;;;;5033247;28;38394;-85
2023/10/16 10:44:39;;;;;;;3.17;0.70;;;14.20;99.90;;;;;;5028473;28;37732;-84
2023/10/16 10:47:18;;;;;;;1.73;0.65;;;14.30;99.90;;;;;;5038407;28;37340;-82
2023/10/16 10:49:44;;;;;;;2.72;1.30;;;14.30;99.90;;;;;;5027830;28;38113;-83
2023/10/16 10:52:16;;;;;;;4.53;0.73;;;14.20;99.90;;;;;;5038489;28;35947;-83
2023/10/16 10:54:49;;;;;;;5.17;0.80;;;13.90;99.90;;;;;;5033657;28;39555;-85
2023/10/16 10:57:22;;;;;;;2.45;0.70;;;13.90;99.90;;;;;;5043066;28;39574;-85
2023/10/16 10:59:48;;;;;;;2.92;0.70;;;14.10;99.90;;;;;;5031146;28;37080;-83
2023/10/16 11:04:45;;;;;;;2.40;0.90;;;14.30;99.90;;;;;;5035583;28;39845;-86
2023/10/16 11:07:13;;;;;;;2.05;0.82;;;14.40;99.90;;;;;;5035971;28;37806;-85
2023/10/16 11:09:39;;;;;;;3.25;1.10;;;14.40;99.90;;;;;;5041598;28;39706;-85
2023/10/16 11:12:08;;;;;;;1.52;0.77;;;14.50;99.90;;;;;;5041406;28;36658;-84
2023/10/16 11:14:36;;;;;;;4.20;0.80;;;14.60;99.90;;;;;;5037783;28;39098;-85
2023/10/16 11:17:06;;;;;;;1.33;0.90;;;14.60;99.90;;;;;;5024906;28;37120;-86
2023/10/16 11:19:49;;;;;;;2.70;1.10;;;14.60;99.90;;;;;;5029225;28;47289;-84
2023/10/16 11:22:26;;;;;;;2.03;0.60;;;14.50;99.90;;;;;;5027117;28;38160;-85
2023/10/16 11:24:54;;;;;;;2.75;0.70;;;14.60;99.90;;;;;;5043722;28;38794;-86
2023/10/16 11:27:20;;;;;;;5.05;1.00;;;14.60;99.90;;;;;;5031711;28;37240;-85
2023/10/16 11:29:47;;;;;;;1.08;0.50;;;14.70;99.90;;;;;;5025441;28;38317;-86
2023/10/16 11:32:17;;;;;;;1.35;0.50;;;14.80;99.90;;;;;;5031352;28;37319;-86
2023/10/16 11:34:45;;;;;;;2.97;0.60;;;14.70;94.10;;;;;;5029576;28;38586;-86
2023/10/16 11:37:15;;;;;;;2.72;0.65;;;14.60;74.60;;;;;;5040693;28;37124;-86
2023/10/16 11:39:44;;;;;;;5.10;1.10;;;14.50;90.50;;;;;;5007840;28;38174;-85
2023/10/16 11:42:13;;;;;;;3.40;0.75;;;14.60;99.90;;;;;;5026747;28;37558;-86
2023/10/16 11:44:40;;;;;;;3.38;0.82;;;14.50;90.90;;;;;;5023298;28;37808;-87
2023/10/16 11:47:16;;;;;;;4.95;1.05;;;14.60;99.90;;;;;;5035343;28;38365;-86
2023/10/16 11:49:56;;;;;;;3.58;1.00;;;14.50;92.40;;;;;;5035140;28;39199;-86
2023/10/16 11:52:27;;;;;;;3.03;0.80;;;14.60;99.90;;;;;;5042011;28;37333;-86
2023/10/16 11:54:56;;;;;;;2.15;0.93;;;14.60;96.60;;;;;;5033850;28;38871;-87
2023/10/16 11:57:27;;;;;;;1.95;0.50;;;14.60;95.80;;;;;;5040492;28;38755;-86
2023/10/16 11:59:53;;;;;;;5.30;0.70;;;14.70;98.60;;;;;;5031155;28;37790;-87
2023/10/16 12:02:21;;;;;;;2.75;0.70;;;14.70;86.90;;;;;;5033973;28;36375;-87
2023/10/16 12:04:49;;;;;;;2.35;0.52;;;14.70;95.50;;;;;;5031939;28;37679;-87
2023/10/16 12:07:16;;;;;;;1.50;0.30;;;14.70;94.10;;;;;;5032611;28;38640;-86
2023/10/16 12:09:47;;;;;;;3.45;0.70;;;14.50;97.60;;;;;;5031007;28;38578;-86
2023/10/16 12:12:19;;;;;;;1.50;0.70;;;14.70;97.50;;;;;;5033771;28;36988;-85
2023/10/16 12:14:50;;;;;;;4.00;0.60;;;14.70;96.10;;;;;;5031939;28;37598;-86
2023/10/16 12:17:24;;;;;;;1.95;0.52;;;14.80;94.30;;;;;;5032486;28;37390;-86
2023/10/16 12:19:52;;;;;;;2.30;0.50;;;14.70;99.90;;;;;;5028218;28;37953;-87
2023/10/16 12:22:20;;;;;;;3.40;0.40;;;14.80;95.70;;;;;;5041262;28;36917;-85
2023/10/16 12:24:47;;;;;;;2.40;0.60;;;14.70;68.60;;;;;;5037872;28;39560;-85
2023/10/16 12:27:15;;;;;;;2.10;0.50;;;14.70;80.50;;;;;;5031034;28;39237;-86
2023/10/16 12:29:42;;;;;;;2.58;0.63;;;14.70;87.00;;;;;;5027912;28;38353;-86
2023/10/16 12:32:10;;;;;;;2.80;0.30;;;15.00;99.90;;;;;;5017270;28;36342;-85
2023/10/16 12:34:36;;;;;;;4.18;0.65;;;15.20;94.10;;;;;;5052539;28;38961;-85
2023/10/16 12:37:06;;;;;;;2.50;0.60;;;15.40;81.70;;;;;;5033779;28;38298;-86
2023/10/16 12:39:35;;;;;;;0.70;0.35;;;15.20;53.60;;;;;;5030958;28;37882;-85
2023/10/16 12:42:06;;;;;;;2.67;0.60;;;15.10;66.30;;;;;;5032705;28;37088;-84
2023/10/16 12:44:33;;;;;;;2.28;0.55;;;15.30;94.30;;;;;;5031675;28;37944;-84
2023/10/16 12:47:00;;;;;;;2.22;0.50;;;15.40;99.90;;;;;;5028680;28;38285;-83
2023/10/16 12:49:26;;;;;;;2.58;0.47;;;15.40;87.70;;;;;;5031275;28;38760;-85
2023/10/16 12:51:53;;;;;;;2.72;0.40;;;15.30;80.70;;;;;;5027205;28;36187;-85
2023/10/16 12:54:24;;;;;;;1.92;0.68;;;15.30;93.40;;;;;;5036812;28;39099;-85
2023/10/16 12:56:53;;;;;;;1.95;0.80;;;15.20;85.50;;;;;;5033301;28;37304;-85
2023/10/16 12:59:20;;;;;;;4.78;0.63;;;15.10;86.20;;;;;;5031186;28;37922;-87
2023/10/16 13:01:49;;;;;;;2.25;0.50;;;15.10;59.00;;;;;;5029309;28;37376;-84
2023/10/16 13:04:17;;;;;;;1.10;0.30;;;14.80;59.70;;;;;;5023199;28;38954;-85
2023/10/16 13:06:46;;;;;;;2.60;0.60;;;14.70;88.30;;;;;;5040636;28;37097;-85
2023/10/16 13:09:17;;;;;;;2.70;0.60;;;14.50;66.00;;;;;;5029486;28;36947;-85
2023/10/16 13:11:46;;;;;;;2.65;0.55;;;14.50;72.40;;;;;;5040278;28;37569;-85
2023/10/16 13:14:12;;;;;;;1.98;0.43;;;14.60;58.90;;;;;;5041062;28;39557;-84
2023/10/16 13:16:44;;;;;;;2.53;0.60;;;14.70;54.10;;;;;;5036939;28;38239;-85
2023/10/16 13:19:10;;;;;;;2.97;0.53;;;14.70;56.60;;;;;;5051757;28;37260;-85
2023/10/16 13:21:41;;;;;;;1.92;0.52;;;14.60;45.90;;;;;;5022062;28;36651;-85
2023/10/16 13:24:10;;;;;;;1.75;0.40;;;14.50;67.10;;;;;;5025838;28;38600;-83
2023/10/16 13:26:37;;;;;;;0.80;0.32;;;14.50;55.80;;;;;;5029437;28;37720;-85
2023/10/16 13:29:08;;;;;;;3.40;0.68;;;14.50;53.70;;;;;;5030030;28;36880;-85
2023/10/16 13:31:41;;;;;;;4.05;0.70;;;14.40;52.10;;;;;;5019988;28;38197;-83
2023/10/16 13:34:11;;;;;;;2.05;1.20;;;14.40;72.00;;;;;;5027219;28;39657;-84
2023/10/16 13:36:38;;;;;;;3.53;0.50;;;14.40;49.90;;;;;;5035541;28;38552;-83
2023/10/16 13:39:08;;;;;;;2.35;0.40;;;14.60;52.70;;;;;;5025287;28;40503;-84
2023/10/16 13:41:44;;;;;;;1.05;0.50;;;14.80;84.90;;;;;;5034760;28;36945;-86
2023/10/16 13:44:10;;;;;;;3.25;0.75;;;15.10;61.00;;;;;;5040542;28;37737;-85
2023/10/16 13:46:37;;;;;;;2.20;0.40;;;15.10;35.40;;;;;;5050473;28;38329;-84
2023/10/16 13:49:03;;;;;;;3.13;0.43;;;15.30;37.80;;;;;;5031314;28;37883;-87
2023/10/16 13:51:29;;;;;;;4.53;0.60;;;15.40;72.60;;;;;;5034913;28;37404;-84
2023/10/16 13:53:55;;;;;;;2.17;0.98;;;15.30;19.40;;;;;;5033341;28;38462;-85
2023/10/16 13:56:22;;;;;;;1.85;0.50;;;15.10;23.30;;;;;;5047901;28;37391;-86
2023/10/16 13:58:50;;;;;;;3.67;0.55;;;14.90;30.60;;;;;;5028154;28;37524;-85
2023/10/16 14:01:17;;;;;;;1.00;0.43;;;14.90;38.60;;;;;;5042214;28;37190;-83
2023/10/16 14:03:44;;;;;;;1.45;0.43;;;14.80;42.60;;;;;;5029568;28;38761;-84
2023/10/16 14:06:13;;;;;;;5.07;0.60;;;14.80;60.90;;;;;;5024758;28;38084;-85
2023/10/16 14:08:41;;;;;;;1.33;0.50;;;14.70;54.30;;;;;;5027815;28;36768;-84
2023/10/16 14:11:11;;;;;;;2.83;0.40;;;14.60;36.10;;;;;;5030975;28;36109;-83
2023/10/16 14:13:40;;;;;;;0.75;0.40;;;14.60;45.60;;;;;;5028713;28;38978;-83
2023/10/16 14:16:17;;;;;;;1.92;0.50;;;14.50;57.80;;;;;;5030832;28;39054;-84
2023/10/16 14:18:44;;;;;;;2.45;0.70;;;14.50;64.40;;;;;;5038923;28;37074;-82
2023/10/16 14:21:11;;;;;;;5.60;1.23;;;14.50;82.00;;;;;;5035237;28;36153;-84
2023/10/16 14:23:38;;;;;;;2.65;1.02;;;14.30;68.00;;;;;;5031666;28;39053;-84
2023/10/16 14:26:11;;;;;;;5.20;0.63;;;14.30;58.50;;;;;;5033729;28;38673;-83
2023/10/16 14:28:44;;;;;;;2.13;0.47;;;14.20;69.20;;;;;;5025723;28;37136;-84
2023/10/16 14:31:11;;;;;;;;;;;14.20;83.30;;;;;;5033435;28;36995;-85
2023/10/16 14:33:37;;;;;;;1.73;0.50;;;14.10;76.90;;;;;;5032526;28;39616;-83
2023/10/16 14:36:06;;;;;;;3.85;0.80;;;14.10;65.30;;;;;;5031922;28;37375;-84
2023/10/16 14:38:32;;;;;;;1.92;0.70;;;14.10;69.80;;;;;;5030026;28;37825;-84
2023/10/16 14:41:06;;;;;;;2.85;0.60;;;14.10;65.50;;;;;;5052276;28;37249;-83
2023/10/16 14:43:36;;;;;;;2.58;1.08;;;14.10;95.20;;;;;;5039499;28;46985;-82
2023/10/16 14:46:04;;;;;;;4.78;0.70;;;14.10;96.70;;;;;;5035724;28;38082;-84
2023/10/16 14:48:31;;;;;;;3.10;0.80;;;14.00;91.80;;;;;;5028174;28;38404;-85
2023/10/16 14:50:59;;;;;;;2.20;0.80;;;14.10;91.50;;;;;;5037973;28;36147;-84
2023/10/16 14:53:26;;;;;;;3.58;0.77;;;14.00;93.30;;;;;;5032985;28;37712;-85
2023/10/16 14:55:52;;;;;;;3.60;0.50;;;14.00;94.90;;;;;;5029027;28;39093;-84
2023/10/16 14:58:18;;;;;;;3.60;0.50;;;13.90;89.10;;;;;;5039420;28;36611;-84
2023/10/16 15:00:50;;;;;;;3.58;0.85;;;13.90;95.20;;;;;;5028573;28;37731;-84
2023/10/16 15:03:20;;;;;;;3.00;0.60;;;13.90;93.30;;;;;;5031883;28;38834;-81
2023/10/16 15:05:46;;;;;;;1.42;0.47;;;13.80;75.00;;;;;;5041049;28;37506;-81
2023/10/16 15:08:13;;;;;;;5.20;0.77;;;13.90;71.40;;;;;;5042726;28;38679;-82
2023/10/16 15:10:44;;;;;;;2.55;0.70;;;13.90;74.40;;;;;;5040855;28;37129;-82
2023/10/16 15:13:14;;;;;;;3.10;0.70;;;13.80;84.20;;;;;;5028615;28;38005;-82
2023/10/16 15:15:45;;;;;;;1.38;0.40;;;13.80;90.50;;;;;;5032412;28;38188;-83
2023/10/16 15:18:14;;;;;;;1.23;0.30;;;13.80;90.30;;;;;;5036390;28;38121;-83
2023/10/16 15:20:41;;;;;;;2.38;0.52;;;13.80;86.80;;;;;;5017444;28;35962;-82
2023/10/16 15:23:11;;;;;;;5.45;0.90;;;13.80;95.90;;;;;;5034897;28;38358;-83
2023/10/16 15:25:38;;;;;;;1.40;0.40;;;13.70;68.80;;;;;;5032234;28;38089;-82
2023/10/16 15:28:13;;;;;;;5.82;0.68;;;13.70;78.90;;;;;;5017799;28;37416;-81
2023/10/16 15:30:42;;;;;;;2.90;0.70;;;13.70;89.80;;;;;;5038099;28;36068;-82
2023/10/16 15:33:09;;;;;;;2.45;0.50;;;13.70;83.20;;;;;;5031750;28;38953;-81
2023/10/16 15:35:37;;;;;;;2.83;0.60;;;13.60;82.70;;;;;;5051448;28;37635;-80
2023/10/16 15:38:04;;;;;;;3.22;0.80;;;13.50;99.30;;;;;;5019688;28;36780;-82
2023/10/16 15:40:31;;;;;;;3.30;0.95;;;13.50;96.30;;;;;;5028863;28;35974;-80
2023/10/16 15:42:59;;;;;;;2.75;0.85;;;13.40;88.20;;;;;;5022854;28;38197;-81
2023/10/16 15:45:33;;;;;;;2.35;0.60;;;13.40;89.00;;;;;;5024948;28;37665;-82
2023/10/16 15:47:59;;;;;;;2.50;0.70;;;13.30;91.30;;;;;;5029374;28;37045;-82
2023/10/16 15:50:27;;;;;;;2.45;0.82;;;13.30;96.00;;;;;;5030918;28;35897;-81
2023/10/16 15:52:57;;;;;;;1.63;0.60;;;13.20;98.00;;;;;;5027713;28;38041;-81
2023/10/16 15:55:24;;;;;;;2.13;0.43;;;13.20;98.90;;;;;;5032343;28;39505;-80
2023/10/16 15:57:52;;;;;;;0.98;0.70;;;13.20;99.90;;;;;;5028507;28;38751;-80
2023/10/16 16:00:18;;;;;;;1.35;0.60;;;13.00;99.90;;;;;;5030718;28;37485;-82
2023/10/16 16:02:45;;;;;;;1.52;0.63;;;12.90;99.90;;;;;;5028598;28;39166;-81
2023/10/16 16:05:11;;;;;;;3.45;1.17;;;12.80;99.90;;;;;;5045048;28;37433;-81
2023/10/16 16:07:37;;;;;;;6.45;1.23;;;12.60;99.90;;;;;;5034963;28;39067;-80
2023/10/16 16:10:06;;;;;;;2.88;0.70;;;12.60;99.90;;;;;;5024355;28;37936;-80
2023/10/16 16:12:32;;;;;;;1.25;0.80;;;12.60;99.90;;;;;;5021137;28;48688;-78
2023/10/16 16:14:58;;;;;;;2.05;0.93;;;12.50;99.90;;;;;;5036920;28;37055;-80
2023/10/16 16:17:25;;;;;;;4.38;0.90;;;12.40;99.90;;;;;;5019943;28;37081;-79
2023/10/16 16:19:52;;;;;;;3.30;0.93;;;12.30;99.90;;;;;;5023070;28;37302;-80
2023/10/16 16:22:18;;;;;;;2.53;1.08;;;12.30;99.90;;;;;;5016928;28;38275;-74
2023/10/16 16:24:44;;;;;;;2.67;1.08;;;12.30;99.90;;;;;;5037846;28;38280;-75
2023/10/16 16:27:10;;;;;;;4.30;1.15;;;12.20;99.90;;;;;;5028970;28;37436;-79
2023/10/16 16:29:36;;;;;;;2.20;0.90;;;12.20;99.90;;;;;;5023803;28;37232;-77
2023/10/16 16:32:07;;;;;;;3.47;1.08;;;12.10;99.90;;;;;;5027384;28;37555;-77
2023/10/16 16:34:33;;;;;;;2.30;1.20;;;11.90;99.90;;;;;;5025917;28;37159;-78
2023/10/16 16:37:00;;;;;;;3.38;1.10;;;11.80;99.90;;;;;;5043871;28;37819;-78
2023/10/16 16:39:32;;;;;;;2.55;0.95;;;11.60;99.90;;;;;;5034334;28;37117;-77
2023/10/16 16:42:13;;;;;;;4.32;1.27;;;11.50;99.90;;;;;;5054587;28;38561;-80
2023/10/16 16:44:41;;;;;;;2.47;1.40;;;11.50;99.90;;;;;;5047656;28;50132;-79
2023/10/16 16:47:13;;;;;;;2.65;1.20;;;11.50;99.90;;;;;;5054264;28;38243;-78
2023/10/16 16:49:47;;;;;;;2.75;1.00;;;11.40;99.90;;;;;;5051802;28;38656;-79
2023/10/16 16:52:15;;;;;;;4.25;1.15;;;11.30;99.90;;;;;;5064833;28;38705;-79
2023/10/16 16:54:41;;;;;;;3.60;1.20;;;11.30;99.90;;;;;;5045536;28;37470;-80
2023/10/16 16:57:07;;;;;;;3.25;0.85;;;11.30;99.90;;;;;;5046528;28;38265;-78
2023/10/16 16:59:35;;;;;;;2.20;0.95;;;11.20;99.90;;;;;;5043031;28;36434;-78
2023/10/16 17:02:02;;;;;;;3.58;1.02;;;11.20;99.90;;;;;;5007288;28;39175;-79
2023/10/16 17:04:28;;;;;;;8.25;2.72;;;11.20;99.90;;;;;;5007402;28;47071;-79
2023/10/16 17:06:59;;;;;;;8.27;1.35;;;11.10;99.90;;;;;;5012328;28;20035;-80
2023/10/16 17:09:28;;;;;;;4.03;0.85;;;11.10;99.90;;;;;;5009298;28;37952;-79
2023/10/16 17:11:55;;;;;;;2.38;0.90;;;11.10;99.90;;;;;;4982690;28;38074;-80
2023/10/16 17:14:21;;;;;;;5.30;0.98;;;11.10;99.90;;;;;;5000592;28;39422;-80
2023/10/16 17:16:49;;;;;;;3.95;1.10;;;11.00;99.90;;;;;;4986466;28;36924;-80
2023/10/16 17:19:19;;;;;;;3.55;1.30;;;11.10;99.90;;;;;;4999602;28;37727;-79
2023/10/16 17:21:47;;;;;;;2.28;0.95;;;11.00;99.90;;;;;;4986550;28;39299;-79
2023/10/16 17:24:14;;;;;;;2.95;0.82;;;11.00;99.90;;;;;;5001290;28;36871;-80
2023/10/16 17:26:41;;;;;;;3.17;1.10;;;11.00;99.90;;;;;;4982805;28;36830;-79
2023/10/16 17:29:07;;;;;;;3.72;1.20;;;11.00;99.90;;;;;;4996403;28;36475;-79
2023/10/16 17:31:35;;;;;;;2.95;1.08;;;11.00;99.90;;;;;;4998743;28;39234;-80
2023/10/16 17:34:04;;;;;;;3.83;1.50;;;10.90;99.90;;;;;;5030074;28;37396;-80